createdAt,value
2018-05-01T00:00:09.869Z,98595.92
2018-05-01T00:02:39.005Z,98596.43
2018-05-01T00:05:07.992Z,98607.56
2018-05-01T00:07:37.196Z,98609.31
2018-05-01T00:10:08.254Z,98605.48
2018-05-01T00:12:38.274Z,98604.56
2018-05-01T00:15:07.977Z,98606.83
2018-05-01T00:17:38.050Z,98606.64
2018-05-01T00:20:07.500Z,98607.05
2018-05-01T00:22:36.631Z,98611.77
2018-05-01T00:25:05.667Z,98615.28
2018-05-01T00:27:35.182Z,98619.91
2018-05-01T00:30:04.662Z,98621.76
2018-05-01T00:32:34.095Z,98622.78
2018-05-01T00:35:03.646Z,98631.83
2018-05-01T00:37:32.827Z,98636.48
2018-05-01T00:40:01.999Z,98642.64
2018-05-01T00:42:31.154Z,98652.24
2018-05-01T00:45:00.847Z,98671.50
2018-05-01T00:47:30.580Z,98684.99
2018-05-01T00:49:59.419Z,98698.39
2018-05-01T00:52:39.888Z,98697.46
2018-05-01T00:55:09.286Z,98706.52
2018-05-01T00:57:38.537Z,98708.78
2018-05-01T01:00:07.512Z,98714.55
2018-05-01T01:02:37.085Z,98732.98
2018-05-01T01:05:06.777Z,98751.73
2018-05-01T01:07:35.984Z,98758.44
2018-05-01T01:10:05.597Z,98749.66
2018-05-01T01:12:34.550Z,98722.14
2018-05-01T01:15:03.813Z,98702.02
2018-05-01T01:17:33.469Z,98685.39
2018-05-01T01:20:02.735Z,98666.32
2018-05-01T01:22:32.201Z,98659.53
2018-05-01T01:25:00.987Z,98644.34
2018-05-01T01:27:29.667Z,98642.17
2018-05-01T01:29:59.639Z,98632.16
2018-05-01T01:32:28.428Z,98631.10
2018-05-01T01:35:00.478Z,98631.20
2018-05-01T01:37:29.761Z,98638.17
2018-05-01T01:39:58.423Z,98648.37
2018-05-01T01:42:26.883Z,98670.58
2018-05-01T01:44:55.619Z,98683.13
2018-05-01T01:47:24.293Z,98689.08
2018-05-01T01:49:53.048Z,98692.77
2018-05-01T01:52:21.729Z,98705.28
2018-05-01T01:54:50.279Z,98717.64
2018-05-01T01:57:19.424Z,98732.12
2018-05-01T01:59:47.709Z,98719.63
2018-05-01T02:02:16.506Z,98710.48
2018-05-01T02:04:45.096Z,98724.42
2018-05-01T02:07:13.160Z,98757.23
2018-05-01T02:09:41.637Z,98757.56
2018-05-01T02:12:10.094Z,98738.31
2018-05-01T02:14:38.948Z,98673.24
2018-05-01T02:17:07.413Z,98658.30
2018-05-01T02:19:35.936Z,98682.38
2018-05-01T02:22:04.373Z,98694.80
2018-05-01T02:24:32.030Z,98707.03
2018-05-01T02:27:00.783Z,98705.92
2018-05-01T02:29:30.000Z,98696.51
2018-05-01T02:31:58.473Z,98688.30
2018-05-01T02:34:27.096Z,98696.78
2018-05-01T02:36:55.101Z,98711.83
2018-05-01T02:39:23.186Z,98717.78
2018-05-01T02:41:51.173Z,98705.73
2018-05-01T02:44:18.941Z,98701.81
2018-05-01T02:46:47.360Z,98713.86
2018-05-01T02:49:16.104Z,98748.66
2018-05-01T02:51:44.457Z,98761.20
2018-05-01T02:54:12.611Z,98760.97
2018-05-01T02:56:41.363Z,98752.11
2018-05-01T02:59:09.609Z,98755.62
2018-05-01T03:01:37.855Z,98769.09
2018-05-01T03:04:06.801Z,98789.58
2018-05-01T03:06:37.228Z,98783.40
2018-05-01T03:09:06.200Z,98776.70
2018-05-01T03:11:34.396Z,98772.92
2018-05-01T03:14:02.878Z,98765.41
2018-05-01T03:16:31.186Z,98771.68
2018-05-01T03:18:59.335Z,98774.17
2018-05-01T03:21:27.160Z,98769.65
2018-05-01T03:23:55.377Z,98766.97
2018-05-01T03:26:23.911Z,98769.83
2018-05-01T03:28:52.579Z,98757.97
2018-05-01T03:31:21.494Z,98760.33
2018-05-01T03:33:49.867Z,98765.36
2018-05-01T03:36:17.595Z,98771.63
2018-05-01T03:38:46.110Z,98770.80
2018-05-01T03:41:14.160Z,98757.00
2018-05-01T03:43:42.219Z,98749.71
2018-05-01T03:46:10.656Z,98756.08
2018-05-01T03:48:38.753Z,98757.51
2018-05-01T03:51:06.826Z,98773.56
2018-05-01T03:53:35.332Z,98767.80
2018-05-01T03:56:04.244Z,98764.52
2018-05-01T03:58:32.288Z,98762.45
2018-05-01T04:01:01.291Z,98750.11
2018-05-01T04:03:29.993Z,98755.55
2018-05-01T04:05:58.347Z,98762.25
2018-05-01T04:08:27.398Z,98779.55
2018-05-01T04:10:55.934Z,98778.72
2018-05-01T04:13:24.867Z,98771.38
2018-05-01T04:15:53.281Z,98789.61
2018-05-01T04:18:21.465Z,98788.27
2018-05-01T04:20:50.150Z,98793.62
2018-05-01T04:23:18.977Z,98798.05
2018-05-01T04:25:47.758Z,98792.88
2018-05-01T04:28:16.305Z,98797.81
2018-05-01T04:30:45.033Z,98802.75
2018-05-01T04:33:14.505Z,98799.16
2018-05-01T04:35:43.114Z,98801.00
2018-05-01T04:38:11.955Z,98794.91
2018-05-01T04:40:40.723Z,98795.54
2018-05-01T04:43:09.814Z,98795.41
2018-05-01T04:45:38.016Z,98797.58
2018-05-01T04:48:06.807Z,98786.59
2018-05-01T04:50:35.509Z,98794.91
2018-05-01T04:53:04.351Z,98785.75
2018-05-01T04:55:33.245Z,98791.52
2018-05-01T04:58:02.056Z,98773.20
2018-05-01T05:00:29.986Z,98780.82
2018-05-01T05:02:58.415Z,98783.08
2018-05-01T05:05:27.237Z,98777.22
2018-05-01T05:07:56.467Z,98782.03
2018-05-01T05:10:25.492Z,98777.22
2018-05-01T05:12:54.315Z,98779.48
2018-05-01T05:15:22.675Z,98790.28
2018-05-01T05:17:51.387Z,98780.91
2018-05-01T05:20:19.517Z,98785.75
2018-05-01T05:22:48.120Z,98771.96
2018-05-01T05:25:17.035Z,98774.64
2018-05-01T05:27:45.355Z,98770.62
2018-05-01T05:30:14.475Z,98769.70
2018-05-01T05:32:42.639Z,98768.66
2018-05-01T05:35:10.291Z,98765.56
2018-05-01T05:37:38.865Z,98766.39
2018-05-01T05:40:07.432Z,98761.88
2018-05-01T05:42:35.014Z,98761.88
2018-05-01T05:45:04.020Z,98763.63
2018-05-01T05:47:32.311Z,98760.63
2018-05-01T05:50:00.585Z,98754.86
2018-05-01T05:52:29.502Z,98753.94
2018-05-01T05:54:57.743Z,98744.57
2018-05-01T05:57:26.598Z,98747.25
2018-05-01T05:59:54.889Z,98742.81
2018-05-01T06:02:23.187Z,98741.09
2018-05-01T06:04:51.883Z,98732.53
2018-05-01T06:07:21.058Z,98732.97
2018-05-01T06:09:49.781Z,98730.39
2018-05-01T06:12:18.480Z,98724.02
2018-05-01T06:14:47.743Z,98722.91
2018-05-01T06:17:16.993Z,98733.16
2018-05-01T06:19:45.407Z,98719.70
2018-05-01T06:22:14.873Z,98715.04
2018-05-01T06:24:43.610Z,98713.45
2018-05-01T06:27:11.902Z,98712.11
2018-05-01T06:29:40.358Z,98716.30
2018-05-01T06:32:09.058Z,98712.37
2018-05-01T06:34:36.953Z,98706.62
2018-05-01T06:37:05.218Z,98702.70
2018-05-01T06:39:33.240Z,98698.87
2018-05-01T06:42:01.531Z,98693.86
2018-05-01T06:44:30.445Z,98696.59
2018-05-01T06:46:59.396Z,98695.66
2018-05-01T06:49:28.020Z,98692.52
2018-05-01T06:51:56.618Z,98681.23
2018-05-01T06:54:25.361Z,98685.84
2018-05-01T06:56:54.295Z,98676.97
2018-05-01T06:59:22.772Z,98675.51
2018-05-01T07:01:52.463Z,98680.98
2018-05-01T07:04:21.300Z,98670.55
2018-05-01T07:06:50.211Z,98674.23
2018-05-01T07:09:18.556Z,98667.88
2018-05-01T07:11:46.762Z,98657.97
2018-05-01T07:14:15.693Z,98659.72
2018-05-01T07:16:44.132Z,98663.11
2018-05-01T07:19:12.760Z,98654.46
2018-05-01T07:21:41.260Z,98653.55
2018-05-01T07:24:10.193Z,98652.09
2018-05-01T07:26:39.207Z,98645.68
2018-05-01T07:29:07.424Z,98639.33
2018-05-01T07:31:35.788Z,98631.03
2018-05-01T07:34:04.234Z,98636.26
2018-05-01T07:36:32.335Z,98633.96
2018-05-01T07:39:01.065Z,98632.02
2018-05-01T07:41:30.657Z,98619.79
2018-05-01T07:43:58.818Z,98613.77
2018-05-01T07:46:28.119Z,98611.97
2018-05-01T07:48:56.867Z,98615.61
2018-05-01T07:51:25.263Z,98618.42
2018-05-01T07:53:53.537Z,98611.55
2018-05-01T07:56:21.570Z,98610.41
2018-05-01T07:58:49.905Z,98607.55
2018-05-01T08:01:18.311Z,98598.52
2018-05-01T08:03:46.790Z,98597.91
2018-05-01T08:06:15.090Z,98594.73
2018-05-01T08:08:43.198Z,98600.31
2018-05-01T08:11:11.976Z,98589.91
2018-05-01T08:13:40.618Z,98575.19
2018-05-01T08:16:09.480Z,98577.77
2018-05-01T08:18:38.311Z,98575.00
2018-05-01T08:21:06.972Z,98570.90
2018-05-01T08:23:34.972Z,98569.05
2018-05-01T08:26:03.002Z,98560.43
2018-05-01T08:28:31.792Z,98561.67
2018-05-01T08:31:00.314Z,98567.85
2018-05-01T08:33:28.685Z,98553.05
2018-05-01T08:35:56.759Z,98543.17
2018-05-01T08:38:25.166Z,98538.11
2018-05-01T08:40:53.729Z,98532.25
2018-05-01T08:43:22.069Z,98532.98
2018-05-01T08:45:50.283Z,98522.61
2018-05-01T08:48:18.846Z,98522.10
2018-05-01T08:50:47.560Z,98518.41
2018-05-01T08:53:15.384Z,98511.21
2018-05-01T08:55:44.243Z,98509.36
2018-05-01T08:58:12.396Z,98509.69
2018-05-01T09:00:41.021Z,98504.72
2018-05-01T09:03:09.128Z,98492.58
2018-05-01T09:05:37.223Z,98487.23
2018-05-01T09:08:05.884Z,98486.21
2018-05-01T09:10:34.612Z,98481.69
2018-05-01T09:13:03.346Z,98482.52
2018-05-01T09:15:31.798Z,98477.48
2018-05-01T09:18:00.591Z,98471.21
2018-05-01T09:20:29.045Z,98476.47
2018-05-01T09:22:57.079Z,98464.33
2018-05-01T09:25:25.996Z,98450.95
2018-05-01T09:27:54.579Z,98444.27
2018-05-01T09:30:22.759Z,98449.02
2018-05-01T09:32:51.215Z,98442.20
2018-05-01T09:35:19.498Z,98434.39
2018-05-01T09:37:49.432Z,98429.45
2018-05-01T09:40:18.318Z,98424.42
2018-05-01T09:42:46.359Z,98416.80
2018-05-01T09:45:14.680Z,98412.70
2018-05-01T09:47:43.384Z,98413.94
2018-05-01T09:50:12.292Z,98399.13
2018-05-01T09:52:41.880Z,98397.28
2018-05-01T09:55:16.409Z,98390.36
2018-05-01T09:57:45.989Z,98385.01
2018-05-01T10:00:30.133Z,98378.64
2018-05-01T10:02:59.426Z,98362.07
2018-05-01T10:05:28.170Z,98363.83
2018-05-01T10:07:57.905Z,98362.90
2018-05-01T10:10:27.096Z,98350.77
2018-05-01T10:12:56.665Z,98349.33
2018-05-01T10:15:26.489Z,98354.58
2018-05-01T10:17:57.737Z,98351.30
2018-05-01T10:20:32.164Z,98344.09
2018-05-01T10:23:01.902Z,98340.39
2018-05-01T10:25:31.355Z,98340.81
2018-05-01T10:28:00.704Z,98338.36
2018-05-01T10:30:30.172Z,98333.83
2018-05-01T10:32:59.944Z,98331.56
2018-05-01T10:35:28.956Z,98324.78
2018-05-01T10:37:59.078Z,98327.36
2018-05-01T10:40:28.863Z,98324.58
2018-05-01T10:42:58.065Z,98326.75
2018-05-01T10:45:27.627Z,98326.23
2018-05-01T10:47:57.508Z,98328.78
2018-05-01T10:50:26.341Z,98324.36
2018-05-01T10:52:55.913Z,98317.98
2018-05-01T10:55:26.192Z,98318.39
2018-05-01T10:57:55.602Z,98320.97
2018-05-01T11:00:25.297Z,98320.88
2018-05-01T11:02:54.145Z,98324.89
2018-05-01T11:05:24.092Z,98321.61
2018-05-01T11:07:53.500Z,98319.66
2018-05-01T11:10:22.648Z,98316.05
2018-05-01T11:12:51.323Z,98310.61
2018-05-01T11:15:20.617Z,98313.98
2018-05-01T11:17:50.560Z,98310.38
2018-05-01T11:20:20.962Z,98311.53
2018-05-01T11:22:50.444Z,98311.84
2018-05-01T11:25:19.412Z,98310.80
2018-05-01T11:27:58.100Z,98317.80
2018-05-01T11:30:29.583Z,98309.67
2018-05-01T11:32:59.527Z,98305.88
2018-05-01T11:35:30.841Z,98301.86
2018-05-01T11:38:01.340Z,98308.45
2018-05-01T11:40:31.104Z,98310.62
2018-05-01T11:43:00.224Z,98315.36
2018-05-01T11:45:29.815Z,98299.30
2018-05-01T11:47:59.816Z,98307.33
2018-05-01T11:50:28.906Z,98301.33
2018-05-01T11:52:58.060Z,98297.31
2018-05-01T11:55:27.066Z,98299.48
2018-05-01T11:57:56.525Z,98305.16
2018-05-01T12:00:26.252Z,98303.20
2018-05-01T12:02:55.747Z,98301.77
2018-05-01T12:05:24.961Z,98300.84
2018-05-01T12:07:54.463Z,98303.02
2018-05-01T12:10:23.925Z,98305.08
2018-05-01T12:12:58.647Z,98302.40
2018-05-01T12:15:27.760Z,98304.53
2018-05-01T12:17:57.275Z,98300.93
2018-05-01T12:20:26.287Z,98308.04
2018-05-01T12:22:55.588Z,98307.42
2018-05-01T12:25:24.914Z,98303.92
2018-05-01T12:27:53.951Z,98311.03
2018-05-01T12:30:23.698Z,98306.50
2018-05-01T12:32:53.573Z,98310.42
2018-05-01T12:35:22.701Z,98310.42
2018-05-01T12:37:52.100Z,98308.57
2018-05-01T12:40:22.100Z,98317.02
2018-05-01T12:42:51.001Z,98319.59
2018-05-01T12:45:20.534Z,98323.61
2018-05-01T12:47:50.186Z,98327.94
2018-05-01T12:50:19.679Z,98324.75
2018-05-01T12:52:49.100Z,98332.69
2018-05-01T12:55:18.518Z,98333.10
2018-05-01T12:57:47.474Z,98336.20
2018-05-01T13:00:16.600Z,98331.77
2018-05-01T13:02:46.088Z,98338.87
2018-05-01T13:05:15.712Z,98339.25
2018-05-01T13:07:45.683Z,98342.34
2018-05-01T13:10:14.639Z,98339.66
2018-05-01T13:12:43.376Z,98345.34
2018-05-01T13:15:11.808Z,98344.41
2018-05-01T13:17:40.446Z,98343.08
2018-05-01T13:20:10.175Z,98346.58
2018-05-01T13:22:40.007Z,98347.09
2018-05-01T13:25:09.562Z,98346.67
2018-05-01T13:27:39.142Z,98346.16
2018-05-01T13:30:08.474Z,98355.95
2018-05-01T13:32:37.982Z,98359.45
2018-05-01T13:35:07.812Z,98362.23
2018-05-01T13:37:42.137Z,98377.69
2018-05-01T13:40:11.446Z,98374.50
2018-05-01T13:42:41.152Z,98385.63
2018-05-01T13:45:10.411Z,98385.63
2018-05-01T13:47:39.086Z,98389.45
2018-05-01T13:50:08.454Z,98392.54
2018-05-01T13:52:37.994Z,98394.48
2018-05-01T13:55:07.017Z,98405.20
2018-05-01T13:57:36.546Z,98410.52
2018-05-01T14:00:06.279Z,98406.42
2018-05-01T14:02:35.999Z,98415.06
2018-05-01T14:05:05.286Z,98418.38
2018-05-01T14:07:34.338Z,98425.16
2018-05-01T14:10:04.449Z,98426.82
2018-05-01T14:12:34.384Z,98439.70
2018-05-01T14:15:04.114Z,98442.38
2018-05-01T14:17:33.661Z,98436.09
2018-05-01T14:20:03.364Z,98445.98
2018-05-01T14:22:32.354Z,98445.66
2018-05-01T14:25:01.978Z,98456.88
2018-05-01T14:27:30.820Z,98455.96
2018-05-01T14:30:00.153Z,98463.48
2018-05-01T14:32:30.002Z,98462.46
2018-05-01T14:34:58.986Z,98458.86
2018-05-01T14:37:28.755Z,98463.70
2018-05-01T14:39:58.128Z,98468.97
2018-05-01T14:42:27.360Z,98470.30
2018-05-01T14:44:57.838Z,98466.70
2018-05-01T14:47:27.042Z,98468.04
2018-05-01T14:49:56.704Z,98475.15
2018-05-01T14:52:26.303Z,98476.07
2018-05-01T14:54:55.231Z,98485.45
2018-05-01T14:57:24.486Z,98487.30
2018-05-01T14:59:53.996Z,98491.73
2018-05-01T15:02:23.374Z,98494.41
2018-05-01T15:04:53.238Z,98496.67
2018-05-01T15:07:22.277Z,98496.67
2018-05-01T15:09:51.521Z,98506.45
2018-05-01T15:12:21.137Z,98504.19
2018-05-01T15:14:50.987Z,98508.21
2018-05-01T15:17:20.207Z,98507.37
2018-05-01T15:19:49.400Z,98511.40
2018-05-01T15:22:18.640Z,98513.56
2018-05-01T15:24:48.413Z,98507.70
2018-05-01T15:27:17.786Z,98515.22
2018-05-01T15:29:47.147Z,98514.39
2018-05-01T15:32:16.796Z,98525.52
2018-05-01T15:34:46.347Z,98526.03
2018-05-01T15:37:15.388Z,98530.97
2018-05-01T15:39:44.609Z,98530.56
2018-05-01T15:42:13.893Z,98544.37
2018-05-01T15:44:42.863Z,98539.01
2018-05-01T15:47:14.157Z,98541.27
2018-05-01T15:49:43.334Z,98545.29
2018-05-01T15:52:12.952Z,98545.29
2018-05-01T15:54:42.240Z,98554.25
2018-05-01T15:57:11.394Z,98556.93
2018-05-01T15:59:41.091Z,98559.61
2018-05-01T16:02:10.003Z,98561.45
2018-05-01T16:04:38.918Z,98565.05
2018-05-01T16:07:08.655Z,98565.05
2018-05-01T16:09:38.145Z,98572.17
2018-05-01T16:12:07.988Z,98577.02
2018-05-01T16:14:37.287Z,98576.00
2018-05-01T16:17:07.109Z,98574.66
2018-05-01T16:19:37.259Z,98576.41
2018-05-01T16:22:06.396Z,98579.50
2018-05-01T16:24:36.204Z,98578.67
2018-05-01T16:27:06.318Z,98575.58
2018-05-01T16:29:36.013Z,98578.77
2018-05-01T16:32:05.751Z,98582.38
2018-05-01T16:34:34.939Z,98582.78
2018-05-01T16:37:04.107Z,98592.25
2018-05-01T16:39:34.173Z,98599.45
2018-05-01T16:42:03.576Z,98596.27
2018-05-01T16:44:32.775Z,98602.97
2018-05-01T16:47:02.324Z,98600.80
2018-05-01T16:49:31.710Z,98603.57
2018-05-01T16:52:00.404Z,98606.25
2018-05-01T16:54:29.347Z,98602.65
2018-05-01T16:56:59.150Z,98602.05
2018-05-01T16:59:28.584Z,98598.95
2018-05-01T17:01:58.137Z,98606.89
2018-05-01T17:04:27.628Z,98609.06
2018-05-01T17:06:56.866Z,98612.56
2018-05-01T17:09:25.877Z,98612.05
2018-05-01T17:11:55.381Z,98616.58
2018-05-01T17:14:24.422Z,98615.24
2018-05-01T17:16:53.858Z,98617.51
2018-05-01T17:19:23.366Z,98620.09
2018-05-01T17:21:52.444Z,98631.22
2018-05-01T17:24:21.598Z,98622.77
2018-05-01T17:26:50.949Z,98628.63
2018-05-01T17:29:20.374Z,98630.48
2018-05-01T17:31:49.448Z,98634.59
2018-05-01T17:34:18.563Z,98633.77
2018-05-01T17:36:47.739Z,98629.75
2018-05-01T17:39:17.233Z,98624.39
2018-05-01T17:41:46.304Z,98626.23
2018-05-01T17:44:15.872Z,98627.07
2018-05-01T17:46:44.768Z,98621.30
2018-05-01T17:49:14.518Z,98620.38
2018-05-01T17:51:44.120Z,98619.87
2018-05-01T17:54:13.503Z,98616.36
2018-05-01T17:56:42.171Z,98607.40
2018-05-01T17:59:11.064Z,98617.19
2018-05-01T18:01:39.885Z,98617.19
2018-05-01T18:04:08.621Z,98610.49
2018-05-01T18:06:37.661Z,98612.25
2018-05-01T18:09:07.197Z,98614.92
2018-05-01T18:11:37.242Z,98612.25
2018-05-01T18:14:06.094Z,98614.61
2018-05-01T18:16:35.267Z,98615.53
2018-05-01T18:19:04.403Z,98613.36
2018-05-01T18:21:33.789Z,98610.36
2018-05-01T18:24:03.471Z,98617.89
2018-05-01T18:26:33.006Z,98623.34
2018-05-01T18:29:02.229Z,98631.05
2018-05-01T18:31:31.369Z,98644.34
2018-05-01T18:34:00.605Z,98649.80
2018-05-01T18:36:29.867Z,98643.94
2018-05-01T18:38:58.936Z,98651.87
2018-05-01T18:41:28.046Z,98652.89
2018-05-01T18:43:56.994Z,98642.50
2018-05-01T18:46:26.303Z,98642.50
2018-05-01T18:48:55.339Z,98644.25
2018-05-01T18:51:26.370Z,98646.83
2018-05-01T18:53:55.559Z,98648.77
2018-05-01T18:56:25.882Z,98647.76
2018-05-01T18:58:55.364Z,98639.72
2018-05-01T19:01:33.373Z,98623.11
2018-05-01T19:04:02.707Z,98611.48
2018-05-01T19:06:31.589Z,98613.23
2018-05-01T19:09:01.325Z,98609.62
2018-05-01T19:11:30.374Z,98606.12
2018-05-01T19:13:59.306Z,98611.06
2018-05-01T19:16:29.176Z,98605.83
2018-05-01T19:18:58.624Z,98604.49
2018-05-01T19:21:28.223Z,98605.00
2018-05-01T19:23:57.105Z,98597.48
2018-05-01T19:26:26.533Z,98600.57
2018-05-01T19:28:56.059Z,98586.86
2018-05-01T19:31:25.503Z,98587.78
2018-05-01T19:33:55.170Z,98586.55
2018-05-01T19:36:24.056Z,98592.73
2018-05-01T19:38:53.626Z,98582.52
2018-05-01T19:41:23.313Z,98580.27
2018-05-01T19:43:52.689Z,98571.72
2018-05-01T19:46:21.989Z,98575.73
2018-05-01T19:48:51.441Z,98578.83
2018-05-01T19:51:20.826Z,98568.12
2018-05-01T19:53:50.163Z,98549.47
2018-05-01T19:56:19.157Z,98551.73
2018-05-01T19:58:49.237Z,98557.50
2018-05-01T20:01:18.709Z,98560.69
2018-05-01T20:03:47.612Z,98569.33
2018-05-01T20:06:17.000Z,98569.74
2018-05-01T20:08:46.110Z,98574.69
2018-05-01T20:11:15.670Z,98558.20
2018-05-01T20:13:44.945Z,98555.62
2018-05-01T20:16:13.467Z,98553.04
2018-05-01T20:18:42.783Z,98561.58
2018-05-01T20:21:12.078Z,98556.77
2018-05-01T20:23:41.225Z,98556.77
2018-05-01T20:26:11.319Z,98553.86
2018-05-01T20:28:40.498Z,98555.94
2018-05-01T20:31:09.881Z,98558.20
2018-05-01T20:33:39.396Z,98545.73
2018-05-01T20:36:08.521Z,98546.66
2018-05-01T20:38:37.963Z,98548.83
2018-05-01T20:41:07.494Z,98552.34
2018-05-01T20:43:36.767Z,98546.56
2018-05-01T20:46:06.343Z,98548.41
2018-05-01T20:48:35.677Z,98549.34
2018-05-01T20:51:05.102Z,98549.84
2018-05-01T20:53:34.017Z,98548.61
2018-05-01T20:56:04.478Z,98547.68
2018-05-01T20:58:33.863Z,98553.55
2018-05-01T21:01:02.821Z,98556.32
2018-05-01T21:03:32.492Z,98557.56
2018-05-01T21:06:01.588Z,98566.61
2018-05-01T21:08:30.698Z,98579.49
2018-05-01T21:11:00.865Z,98601.74
2018-05-01T21:13:30.012Z,98603.17
2018-05-01T21:15:58.952Z,98598.23
2018-05-01T21:18:28.958Z,98592.98
2018-05-01T21:20:58.612Z,98592.98
2018-05-01T21:23:28.395Z,98586.38
2018-05-01T21:25:58.281Z,98584.63
2018-05-01T21:28:27.902Z,98581.84
2018-05-01T21:30:56.726Z,98588.22
2018-05-01T21:33:26.219Z,98581.02
2018-05-01T21:35:55.475Z,98571.14
2018-05-01T21:38:24.614Z,98576.59
2018-05-01T21:40:53.601Z,98582.45
2018-05-01T21:43:22.374Z,98586.98
2018-05-01T21:45:52.275Z,98584.43
2018-05-01T21:48:22.116Z,98591.92
2018-05-01T21:50:51.474Z,98584.94
2018-05-01T21:53:20.939Z,98575.66
2018-05-01T21:55:50.508Z,98571.74
2018-05-01T21:58:19.618Z,98578.02
2018-05-01T22:00:48.864Z,98586.14
2018-05-01T22:03:17.953Z,98581.20
2018-05-01T22:05:48.309Z,98578.53
2018-05-01T22:08:18.421Z,98577.80
2018-05-01T22:10:47.287Z,98581.72
2018-05-01T22:13:16.659Z,98587.16
2018-05-01T22:15:46.830Z,98588.09
2018-05-01T22:18:16.203Z,98587.16
2018-05-01T22:20:46.054Z,98591.18
2018-05-01T22:23:15.101Z,98598.29
2018-05-01T22:25:44.060Z,98600.45
2018-05-01T22:28:13.965Z,98594.78
2018-05-01T22:30:43.529Z,98578.40
2018-05-01T22:33:12.602Z,98570.97
2018-05-01T22:35:42.678Z,98575.11
2018-05-01T22:38:11.852Z,98580.88
2018-05-01T22:40:42.024Z,98576.32
2018-05-01T22:43:11.459Z,98579.60
2018-05-01T22:45:41.575Z,98586.20
2018-05-01T22:48:10.345Z,98575.68
2018-05-01T22:50:41.007Z,98569.17
2018-05-01T22:53:10.356Z,98577.11
2018-05-01T22:55:40.381Z,98584.22
2018-05-01T22:58:10.262Z,98581.95
2018-05-01T23:00:40.276Z,98578.87
2018-05-01T23:03:09.539Z,98575.87
2018-05-01T23:05:39.175Z,98563.41
2018-05-01T23:08:07.907Z,98560.95
2018-05-01T23:10:37.432Z,98565.98
2018-05-01T23:13:07.158Z,98569.91
2018-05-01T23:15:36.450Z,98567.74
2018-05-01T23:18:05.677Z,98567.74
2018-05-01T23:20:34.358Z,98567.33
2018-05-01T23:23:03.980Z,98571.44
2018-05-01T23:25:33.653Z,98575.45
2018-05-01T23:28:03.269Z,98570.61
2018-05-01T23:30:32.490Z,98571.20
2018-05-01T23:33:02.068Z,98577.07
2018-05-01T23:35:31.328Z,98588.28
2018-05-01T23:38:00.563Z,98591.56
2018-05-01T23:40:29.649Z,98599.69
2018-05-01T23:42:59.385Z,98609.47
2018-05-01T23:45:28.218Z,98613.58
2018-05-01T23:47:57.237Z,98611.00
2018-05-01T23:50:26.831Z,98621.38
2018-05-01T23:52:56.061Z,98629.00
2018-05-01T23:55:25.459Z,98630.34
2018-05-01T23:57:54.790Z,98627.66
